Time;durP1;ratioP1;P1;durP2;ratioP2;P2;SDS_P1;SDS_P2;PMS_P1;PMS_P2;Temp;Humidity;BMP_temperature;BMP_pressure;BME280_temperature;BME280_humidity;BME280_pressure;Samples;Min_cycle;Max_cycle;Signal;HPM_P1;HPM_P2
2023/10/28 00:03:37;;;;;;;7.53;2.13;;;;;;;;;;10341658;28;20247;-74
2023/10/28 00:08:37;;;;;;;5.80;2.07;;;;;;;;;;10348984;28;20042;-74
2023/10/28 00:13:39;;;;;;;4.60;2.30;;;;;;;;;;10352868;28;20024;-74
2023/10/28 00:18:39;;;;;;;6.60;2.55;;;;;;;;;;10357930;28;20025;-73
2023/10/28 00:23:40;;;;;;;6.93;2.63;;;;;;;;;;10347582;28;20022;-73
2023/10/28 00:28:40;;;;;;;6.03;2.42;;;;;;;;;;10342730;28;20014;-73
2023/10/28 00:33:40;;;;;;;4.75;2.15;;;;;;;;;;10340202;28;20098;-75
2023/10/28 00:38:41;;;;;;;8.65;2.20;;;;;;;;;;10373253;28;20025;-73
2023/10/28 00:43:41;;;;;;;5.37;2.60;;;;;;;;;;10393598;28;20072;-73
2023/10/28 00:48:41;;;;;;;5.53;2.37;;;;;;;;;;10393709;28;20090;-75
2023/10/28 00:53:44;;;;;;;5.47;2.80;;;;;;;;;;10377349;28;20219;-75
2023/10/28 00:58:45;;;;;;;8.23;2.80;;;;;;;;;;10375669;28;20022;-76
2023/10/28 01:03:46;;;;;;;7.05;3.00;;;;;;;;;;10387179;28;20343;-74
2023/10/28 01:08:46;;;;;;;9.00;3.58;;;;;;;;;;10374821;28;20020;-75
2023/10/28 01:13:46;;;;;;;8.60;2.40;;;;;;;;;;10338498;28;20018;-74
2023/10/28 01:18:51;;;;;;;8.23;2.30;;;;;;;;;;10378071;28;20030;-74
2023/10/28 01:23:52;;;;;;;8.35;3.10;;;;;;;;;;10377155;28;20053;-75
2023/10/28 01:28:54;;;;;;;5.10;2.30;;;;;;;;;;10376876;28;20021;-75
2023/10/28 01:33:54;;;;;;;189.10;174.25;;;;;;;;;;10377047;28;20041;-76
2023/10/28 01:38:56;;;;;;;6.73;3.60;;;;;;;;;;10376767;28;20084;-76
2023/10/28 01:43:56;;;;;;;19.17;2.70;;;;;;;;;;10376134;28;20570;-76
2023/10/28 01:48:57;;;;;;;7.85;2.60;;;;;;;;;;10376552;28;20017;-76
2023/10/28 01:53:57;;;;;;;6.80;2.57;;;;;;;;;;10377196;28;20219;-76
2023/10/28 01:58:57;;;;;;;11.85;2.70;;;;;;;;;;10376227;28;20032;-75
2023/10/28 02:03:57;;;;;;;6.95;2.50;;;;;;;;;;10376288;28;20208;-75
2023/10/28 02:08:58;;;;;;;8.15;2.45;;;;;;;;;;10376184;28;20018;-75
2023/10/28 02:13:58;;;;;;;11.77;2.70;;;;;;;;;;10391003;28;20316;-75
2023/10/28 02:18:58;;;;;;;9.85;2.17;;;;;;;;;;10376095;28;20208;-76
2023/10/28 02:24:00;;;;;;;7.22;2.33;;;;;;;;;;10391456;28;20018;-76
2023/10/28 02:29:00;;;;;;;11.32;2.80;;;;;;;;;;10375402;28;20382;-76
2023/10/28 02:34:00;;;;;;;6.87;2.87;;;;;;;;;;10375264;28;20262;-77
2023/10/28 02:39:01;;;;;;;3.88;2.72;;;;;;;;;;10376451;28;20033;-76
2023/10/28 02:44:03;;;;;;;7.63;2.63;;;;;;;;;;10383500;28;20258;-76
2023/10/28 02:49:03;;;;;;;9.40;3.28;;;;;;;;;;10383391;28;20296;-76
2023/10/28 02:54:04;;;;;;;4.90;2.35;;;;;;;;;;10383019;28;20215;-75
2023/10/28 02:59:06;;;;;;;10.55;2.80;;;;;;;;;;10382848;28;20061;-77
2023/10/28 03:04:07;;;;;;;6.53;2.83;;;;;;;;;;10382918;28;20021;-75
2023/10/28 03:09:07;;;;;;;11.98;3.17;;;;;;;;;;10382976;28;20072;-76
2023/10/28 03:14:07;;;;;;;9.63;3.65;;;;;;;;;;10381931;28;20071;-76
2023/10/28 03:19:11;;;;;;;6.10;2.45;;;;;;;;;;10382142;28;20020;-76
2023/10/28 03:24:11;;;;;;;7.00;3.05;;;;;;;;;;10363719;28;20026;-76
2023/10/28 03:29:11;;;;;;;4.80;2.63;;;;;;;;;;10377920;28;20206;-76
2023/10/28 03:34:11;;;;;;;9.35;3.28;;;;;;;;;;10379751;28;20310;-76
2023/10/28 03:39:12;;;;;;;8.37;2.70;;;;;;;;;;10381344;28;20025;-76
2023/10/28 03:44:13;;;;;;;10.20;3.67;;;;;;;;;;10397171;28;20232;-75
2023/10/28 03:49:14;;;;;;;7.65;3.83;;;;;;;;;;10380579;28;20216;-75
2023/10/28 03:54:14;;;;;;;9.15;3.45;;;;;;;;;;10379137;28;20096;-74
2023/10/28 03:59:15;;;;;;;8.73;4.20;;;;;;;;;;10380131;28;20022;-75
2023/10/28 04:04:15;;;;;;;7.70;3.05;;;;;;;;;;10379838;28;20246;-74
2023/10/28 04:09:16;;;;;;;11.80;3.42;;;;;;;;;;10380035;28;20026;-74
2023/10/28 04:14:19;;;;;;;8.35;3.90;;;;;;;;;;10379425;28;20033;-74
2023/10/28 04:19:19;;;;;;;7.15;3.30;;;;;;;;;;10379503;28;20025;-75
2023/10/28 04:24:19;;;;;;;7.35;3.53;;;;;;;;;;10379233;28;20045;-74
2023/10/28 04:29:20;;;;;;;10.30;3.97;;;;;;;;;;10362992;28;20060;-74
2023/10/28 04:34:20;;;;;;;13.80;3.83;;;;;;;;;;10377877;28;20290;-74
2023/10/28 04:39:23;;;;;;;9.77;3.92;;;;;;;;;;10365581;28;20213;-73
2023/10/28 04:44:24;;;;;;;11.30;4.40;;;;;;;;;;10347394;28;20029;-73
2023/10/28 04:49:24;;;;;;;13.67;4.50;;;;;;;;;;10393066;28;20038;-73
2023/10/28 04:54:24;;;;;;;9.80;4.20;;;;;;;;;;10393102;28;20026;-74
2023/10/28 04:59:25;;;;;;;15.85;4.05;;;;;;;;;;10364320;28;20482;-76
2023/10/28 05:04:26;;;;;;;16.43;5.87;;;;;;;;;;10360883;28;20030;-74
2023/10/28 05:09:28;;;;;;;24.55;5.32;;;;;;;;;;10342284;28;20026;-74
2023/10/28 05:14:28;;;;;;;34.67;13.20;;;;;;;;;;10338545;28;20081;-76
2023/10/28 05:19:29;;;;;;;15.38;4.88;;;;;;;;;;10379447;28;20363;-75
2023/10/28 05:24:30;;;;;;;12.30;4.35;;;;;;;;;;10357974;28;20085;-77
2023/10/28 05:29:30;;;;;;;12.55;5.38;;;;;;;;;;10358257;28;20104;-76
2023/10/28 05:34:30;;;;;;;15.60;4.32;;;;;;;;;;10374037;28;20300;-76
2023/10/28 05:39:31;;;;;;;8.00;3.60;;;;;;;;;;10377240;28;20328;-76
2023/10/28 05:44:31;;;;;;;11.23;4.60;;;;;;;;;;10376563;28;20036;-77
2023/10/28 05:49:33;;;;;;;12.33;3.90;;;;;;;;;;10391985;28;20314;-76
2023/10/28 05:54:33;;;;;;;12.70;4.25;;;;;;;;;;10376885;28;20013;-76
2023/10/28 05:59:34;;;;;;;12.77;3.72;;;;;;;;;;10376197;28;20211;-76
2023/10/28 06:04:34;;;;;;;9.63;2.97;;;;;;;;;;10391446;28;20052;-75
2023/10/28 06:09:34;;;;;;;13.87;4.30;;;;;;;;;;10374893;28;20264;-79
2023/10/28 06:14:35;;;;;;;7.93;3.93;;;;;;;;;;10363512;28;20288;-76
2023/10/28 06:19:35;;;;;;;13.90;4.43;;;;;;;;;;10344142;28;20037;-76
2023/10/28 06:24:35;;;;;;;4.67;2.37;;;;;;;;;;10369995;28;20036;-79
2023/10/28 06:29:37;;;;;;;11.27;3.63;;;;;;;;;;10374629;28;20034;-73
2023/10/28 06:34:38;;;;;;;8.70;3.67;;;;;;;;;;10367576;28;20096;-75
2023/10/28 06:39:38;;;;;;;12.77;4.35;;;;;;;;;;10372633;28;20010;-75
2023/10/28 06:44:39;;;;;;;16.00;5.17;;;;;;;;;;10372199;28;20025;-75
2023/10/28 06:49:41;;;;;;;11.97;4.63;;;;;;;;;;10372435;28;20034;-75
2023/10/28 06:54:42;;;;;;;11.93;4.97;;;;;;;;;;10371160;28;20049;-73
2023/10/28 06:59:42;;;;;;;16.08;4.50;;;;;;;;;;10370955;28;20248;-75
2023/10/28 07:04:42;;;;;;;9.27;3.30;;;;;;;;;;10359584;28;20037;-74
2023/10/28 07:09:42;;;;;;;6.88;3.28;;;;;;;;;;10360091;28;20018;-73
2023/10/28 07:14:43;;;;;;;12.85;3.10;;;;;;;;;;10373236;28;20213;-71
2023/10/28 07:19:43;;;;;;;10.73;4.22;;;;;;;;;;10356071;28;20268;-75
2023/10/28 07:24:43;;;;;;;7.53;2.70;;;;;;;;;;10365863;28;20232;-76
2023/10/28 07:29:44;;;;;;;10.70;2.20;;;;;;;;;;10370088;28;20021;-77
2023/10/28 07:34:44;;;;;;;9.97;3.53;;;;;;;;;;10380740;28;20208;-78
2023/10/28 07:39:45;;;;;;;6.63;2.55;;;;;;;;;;10364393;28;20516;-78
2023/10/28 07:44:45;;;;;;;7.93;2.70;;;;;;;;;;10379637;28;20316;-77
2023/10/28 07:49:45;;;;;;;7.05;2.88;;;;;;;;;;10380504;28;20533;-80
2023/10/28 07:54:45;;;;;;;10.73;3.60;;;;;;;;;;10380169;28;20018;-79
2023/10/28 07:59:46;;;;;;;10.70;2.65;;;;;;;;;;10379005;28;20026;-79
2023/10/28 08:04:46;;;;;;;4.35;2.13;;;;;;;;;;10378850;28;20029;-79
2023/10/28 08:09:46;;;;;;;11.02;2.78;;;;;;;;;;10379749;28;20021;-78
2023/10/28 08:14:48;;;;;;;8.07;2.75;;;;;;;;;;10374086;28;20526;-79
2023/10/28 08:19:49;;;;;;;10.93;1.88;;;;;;;;;;10379333;28;20010;-79
2023/10/28 08:24:50;;;;;;;3.50;1.85;;;;;;;;;;10388238;28;20200;-80
2023/10/28 08:29:51;;;;;;;11.77;3.03;;;;;;;;;;10363558;28;20195;-80
2023/10/28 08:34:53;;;;;;;7.68;2.20;;;;;;;;;;10379479;28;20018;-80
2023/10/28 08:39:53;;;;;;;4.65;1.88;;;;;;;;;;10378601;28;20335;-80
2023/10/28 08:44:54;;;;;;;7.53;2.40;;;;;;;;;;10393480;28;20093;-78
2023/10/28 08:49:54;;;;;;;13.73;2.15;;;;;;;;;;10378445;28;20730;-79
2023/10/28 08:54:57;;;;;;;5.32;1.60;;;;;;;;;;10394228;28;20026;-79
2023/10/28 08:59:58;;;;;;;7.43;1.92;;;;;;;;;;10377693;28;20026;-80
2023/10/28 09:04:58;;;;;;;6.30;1.57;;;;;;;;;;10377763;28;20322;-79
2023/10/28 09:09:58;;;;;;;7.30;2.28;;;;;;;;;;10378063;28;20328;-80
2023/10/28 09:14:59;;;;;;;4.78;1.75;;;;;;;;;;10377315;28;20037;-80
2023/10/28 09:20:00;;;;;;;7.73;2.33;;;;;;;;;;10375564;28;20072;-79
2023/10/28 09:25:03;;;;;;;4.88;1.67;;;;;;;;;;10377374;28;20220;-80
2023/10/28 09:30:07;;;;;;;7.28;1.80;;;;;;;;;;10391178;28;20452;-80
2023/10/28 09:35:08;;;;;;;4.93;1.75;;;;;;;;;;10375989;28;20026;-80
2023/10/28 09:40:12;;;;;;;7.28;1.73;;;;;;;;;;10375696;28;20014;-80
2023/10/28 09:45:12;;;;;;;6.13;1.40;;;;;;;;;;10376343;28;20140;-80
2023/10/28 09:50:14;;;;;;;3.05;1.25;;;;;;;;;;10375247;28;20227;-81
2023/10/28 09:55:15;;;;;;;5.45;1.23;;;;;;;;;;10375622;28;20026;-80
2023/10/28 10:00:18;;;;;;;4.18;1.08;;;;;;;;;;10390722;28;20092;-80
2023/10/28 10:05:23;;;;;;;2.33;0.75;;;;;;;;;;10390669;28;20061;-81
2023/10/28 10:10:23;;;;;;;3.47;0.80;;;;;;;;;;10375239;28;20080;-81
2023/10/28 10:15:24;;;;;;;2.50;0.52;;;;;;;;;;10390603;28;20299;-79
2023/10/28 10:20:25;;;;;;;5.28;1.30;;;;;;;;;;10390285;28;20021;-79
2023/10/28 10:25:32;;;;;;;4.50;1.05;;;;;;;;;;10374845;28;20018;-80
2023/10/28 10:30:33;;;;;;;6.07;1.35;;;;;;;;;;10374576;28;20068;-79
2023/10/28 10:35:34;;;;;;;7.35;3.05;;;;;;;;;;10389659;28;20044;-81
2023/10/28 10:40:47;;;;;;;1056.15;962.58;;;;;;;;;;10374773;28;20033;-80
2023/10/28 10:45:48;;;;;;;5.30;0.70;;;;;;;;;;10375168;28;20049;-80
2023/10/28 10:50:49;;;;;;;5.75;0.90;;;;;;;;;;10374563;28;20025;-80
2023/10/28 10:55:49;;;;;;;6.90;0.90;;;;;;;;;;10389798;28;20032;-79
2023/10/28 11:00:54;;;;;;;4.13;0.70;;;;;;;;;;10392116;28;20106;-78
2023/10/28 11:05:55;;;;;;;3.22;0.70;;;;;;;;;;10392729;28;20033;-79
2023/10/28 11:10:56;;;;;;;2.28;0.70;;;;;;;;;;10366352;28;20014;-80
2023/10/28 11:15:57;;;;;;;2.92;0.63;;;;;;;;;;10382140;28;20029;-81
2023/10/28 11:20:57;;;;;;;1.38;0.40;;;;;;;;;;10381398;28;20025;-81
2023/10/28 11:26:02;;;;;;;3.33;0.87;;;;;;;;;;10381882;28;20025;-80
2023/10/28 11:31:02;;;;;;;4.25;0.70;;;;;;;;;;10386754;28;20363;-82
2023/10/28 11:36:04;;;;;;;8.00;1.20;;;;;;;;;;10369850;28;20336;-81
2023/10/28 11:41:05;;;;;;;5.65;0.85;;;;;;;;;;10397600;28;20018;-81
2023/10/28 11:46:06;;;;;;;5.40;1.00;;;;;;;;;;10356005;28;20030;-82
2023/10/28 11:51:09;;;;;;;6.28;0.68;;;;;;;;;;10348512;28;20025;-82
2023/10/28 11:56:09;;;;;;;2.05;1.13;;;;;;;;;;10382332;28;20315;-83
2023/10/28 12:01:10;;;;;;;3.92;0.82;;;;;;;;;;10382680;28;20041;-81
2023/10/28 12:06:10;;;;;;;6.20;0.98;;;;;;;;;;10391310;28;20304;-81
2023/10/28 12:11:12;;;;;;;2.85;0.63;;;;;;;;;;10367148;28;20400;-81
2023/10/28 12:16:12;;;;;;;2.88;0.93;;;;;;;;;;10381085;28;20014;-81
2023/10/28 12:21:15;;;;;;;7.57;0.80;;;;;;;;;;10381321;28;20085;-82
2023/10/28 12:26:17;;;;;;;3.42;1.23;;;;;;;;;;10384001;28;20239;-81
2023/10/28 12:31:17;;;;;;;4.28;1.02;;;;;;;;;;10396082;28;20236;-80
2023/10/28 12:36:18;;;;;;;3.20;0.73;;;;;;;;;;10380484;28;20081;-82
2023/10/28 12:41:18;;;;;;;3.90;1.02;;;;;;;;;;10395933;28;20056;-81
2023/10/28 12:46:18;;;;;;;4.17;0.93;;;;;;;;;;10380503;28;20053;-82
2023/10/28 12:51:20;;;;;;;3.47;0.80;;;;;;;;;;10364595;28;20017;-82
2023/10/28 12:56:21;;;;;;;6.28;1.00;;;;;;;;;;10389288;28;20022;-81
2023/10/28 13:01:25;;;;;;;3.95;0.90;;;;;;;;;;10369886;28;20040;-81
2023/10/28 13:06:25;;;;;;;3.30;0.90;;;;;;;;;;10394374;28;20121;-79
2023/10/28 13:11:27;;;;;;;2.45;0.70;;;;;;;;;;10393704;28;20049;-80
2023/10/28 13:16:27;;;;;;;5.72;1.02;;;;;;;;;;10364333;28;20076;-81
2023/10/28 13:21:28;;;;;;;5.80;1.25;;;;;;;;;;10374120;28;20060;-81
2023/10/28 13:26:29;;;;;;;7.73;0.93;;;;;;;;;;10367794;28;20090;-80
2023/10/28 13:31:29;;;;;;;6.05;1.13;;;;;;;;;;10378613;28;20261;-81
2023/10/28 13:36:30;;;;;;;4.80;1.00;;;;;;;;;;10362410;28;20025;-80
2023/10/28 13:41:30;;;;;;;4.78;1.70;;;;;;;;;;10378009;28;20025;-79
2023/10/28 13:46:31;;;;;;;7.23;1.07;;;;;;;;;;10377556;28;20307;-80
2023/10/28 13:51:31;;;;;;;4.03;1.15;;;;;;;;;;10393460;28;20316;-81
2023/10/28 13:56:32;;;;;;;5.93;1.10;;;;;;;;;;10378237;28;20224;-80
2023/10/28 14:01:33;;;;;;;4.63;1.60;;;;;;;;;;10362949;28;20308;-83
2023/10/28 14:06:33;;;;;;;4.90;1.08;;;;;;;;;;10378314;28;20040;-83
2023/10/28 14:11:33;;;;;;;5.00;1.03;;;;;;;;;;10378525;28;20208;-81
2023/10/28 14:16:34;;;;;;;7.50;1.50;;;;;;;;;;10369232;28;20090;-81
2023/10/28 14:21:34;;;;;;;12.05;1.92;;;;;;;;;;10356373;28;20219;-82
2023/10/28 14:26:35;;;;;;;5.60;1.13;;;;;;;;;;10379277;28;20303;-83
2023/10/28 14:31:35;;;;;;;8.82;1.10;;;;;;;;;;10362100;28;20352;-81
2023/10/28 14:36:36;;;;;;;4.35;1.13;;;;;;;;;;10396215;28;20267;-81
2023/10/28 14:41:38;;;;;;;8.25;1.63;;;;;;;;;;10385953;28;20217;-81
2023/10/28 14:46:38;;;;;;;5.65;1.40;;;;;;;;;;10393060;28;20304;-80
2023/10/28 14:51:38;;;;;;;5.38;1.35;;;;;;;;;;10397446;28;20022;-82
2023/10/28 14:56:38;;;;;;;4.17;1.27;;;;;;;;;;10361064;28;20026;-82
2023/10/28 15:01:39;;;;;;;8.33;1.27;;;;;;;;;;10371052;28;20182;-81
2023/10/28 15:06:39;;;;;;;11.15;1.63;;;;;;;;;;10378693;28;20068;-80
2023/10/28 15:11:39;;;;;;;6.20;2.07;;;;;;;;;;10384849;28;20029;-81
2023/10/28 15:16:40;;;;;;;5.83;1.50;;;;;;;;;;10368295;28;20022;-80
2023/10/28 15:21:40;;;;;;;4.20;1.10;;;;;;;;;;10367494;28;20057;-81
2023/10/28 15:26:40;;;;;;;6.38;1.50;;;;;;;;;;10371751;28;20340;-79
2023/10/28 15:31:41;;;;;;;3.73;1.30;;;;;;;;;;10365267;28;20366;-82
2023/10/28 15:36:41;;;;;;;5.27;1.60;;;;;;;;;;10382535;28;20258;-80
2023/10/28 15:41:43;;;;;;;3.05;1.08;;;;;;;;;;10369280;28;20275;-81
2023/10/28 15:46:43;;;;;;;4.88;1.17;;;;;;;;;;10375282;28;20026;-79
2023/10/28 15:51:43;;;;;;;6.17;1.33;;;;;;;;;;10373660;28;20227;-80
2023/10/28 15:56:44;;;;;;;11.98;2.03;;;;;;;;;;10397315;28;20044;-80
2023/10/28 16:01:44;;;;;;;10.20;1.90;;;;;;;;;;10365620;28;20227;-81
2023/10/28 16:06:45;;;;;;;12.83;3.00;;;;;;;;;;10381051;28;20331;-80
2023/10/28 16:11:45;;;;;;;14.10;2.65;;;;;;;;;;10397178;28;20092;-80
2023/10/28 16:16:46;;;;;;;9.13;2.87;;;;;;;;;;10380132;28;20288;-80
2023/10/28 16:21:49;;;;;;;9.13;2.88;;;;;;;;;;10380241;28;20339;-79
2023/10/28 16:26:49;;;;;;;11.88;2.50;;;;;;;;;;10381985;28;20359;-79
2023/10/28 16:31:49;;;;;;;9.35;3.38;;;;;;;;;;10379620;28;20334;-79
2023/10/28 16:36:50;;;;;;;12.65;3.28;;;;;;;;;;10366434;28;20022;-79
2023/10/28 16:41:51;;;;;;;10.27;4.30;;;;;;;;;;10364083;28;20021;-79
2023/10/28 16:46:52;;;;;;;15.80;4.20;;;;;;;;;;10383149;28;20025;-80
2023/10/28 16:51:52;;;;;;;9.63;3.55;;;;;;;;;;10363942;28;20080;-81
2023/10/28 16:56:52;;;;;;;10.10;3.63;;;;;;;;;;10378995;28;20065;-78
2023/10/28 17:01:53;;;;;;;13.40;4.03;;;;;;;;;;10379775;28;20053;-82
2023/10/28 17:06:53;;;;;;;15.98;4.55;;;;;;;;;;10378072;28;20022;-78
2023/10/28 17:11:53;;;;;;;17.35;3.90;;;;;;;;;;10357301;28;20026;-77
2023/10/28 17:16:54;;;;;;;18.30;4.55;;;;;;;;;;10362951;28;20038;-76
2023/10/28 17:21:54;;;;;;;14.00;4.77;;;;;;;;;;10350692;28;20426;-76
2023/10/28 17:26:55;;;;;;;17.30;4.40;;;;;;;;;;10390209;28;20097;-73
2023/10/28 17:31:57;;;;;;;15.60;5.07;;;;;;;;;;10374159;28;20056;-74
2023/10/28 17:36:57;;;;;;;13.93;4.57;;;;;;;;;;10373821;28;20021;-78
2023/10/28 17:41:57;;;;;;;20.50;4.70;;;;;;;;;;10390600;28;20296;-73
2023/10/28 17:47:05;;;;;;;15.57;4.90;;;;;;;;;;10382583;28;20068;-93
2023/10/28 17:52:09;;;;;;;18.40;8.00;;;;;;;;;;10367833;28;20042;-89
2023/10/28 17:57:10;;;;;;;17.08;6.43;;;;;;;;;;10358140;28;20042;-89
2023/10/28 18:02:10;;;;;;;11.80;4.95;;;;;;;;;;10351994;28;20041;-76
2023/10/28 18:07:13;;;;;;;13.23;5.15;;;;;;;;;;10337389;28;20064;-75
2023/10/28 18:12:13;;;;;;;16.15;5.53;;;;;;;;;;10347134;28;20109;-78
2023/10/28 18:17:14;;;;;;;12.07;4.05;;;;;;;;;;10335052;28;20026;-77
2023/10/28 18:22:15;;;;;;;6.97;3.37;;;;;;;;;;10436285;22;20591;-76
2023/10/28 18:27:15;;;;;;;18.95;5.00;;;;;;;;;;10313712;28;20147;-77
2023/10/28 18:32:15;;;;;;;11.88;5.10;;;;;;;;;;10309563;28;20030;-77
2023/10/28 18:37:16;;;;;;;12.63;3.92;;;;;;;;;;10309524;28;20033;-76
2023/10/28 18:42:16;;;;;;;17.73;5.20;;;;;;;;;;10308211;28;20088;-81
2023/10/28 18:47:18;;;;;;;14.25;5.00;;;;;;;;;;10311236;28;20037;-76
2023/10/28 18:52:21;;;;;;;20.08;5.38;;;;;;;;;;10314169;28;20681;-76
2023/10/28 18:57:21;;;;;;;20.17;5.90;;;;;;;;;;10315383;28;20443;-76
2023/10/28 19:02:21;;;;;;;15.70;5.38;;;;;;;;;;10314601;28;20027;-76
2023/10/28 19:07:22;;;;;;;16.75;5.13;;;;;;;;;;10313506;28;20041;-76
2023/10/28 19:12:23;;;;;;;14.82;5.85;;;;;;;;;;10314938;28;20077;-79
2023/10/28 19:17:25;;;;;;;14.82;5.85;;;;;;;;;;10315347;28;20417;-81
2023/10/28 19:22:25;;;;;;;12.50;4.78;;;;;;;;;;10318151;28;22013;-76
2023/10/28 19:27:25;;;;;;;17.58;4.72;;;;;;;;;;10321728;28;20041;-77
2023/10/28 19:32:26;;;;;;;11.32;5.22;;;;;;;;;;10323702;28;20097;-82
2023/10/28 19:37:27;;;;;;;15.18;6.22;;;;;;;;;;10322829;28;20456;-79
2023/10/28 19:42:30;;;;;;;20.25;5.28;;;;;;;;;;10321723;28;20018;-76
2023/10/28 19:47:31;;;;;;;15.32;4.90;;;;;;;;;;10321986;28;20026;-77
2023/10/28 19:52:31;;;;;;;20.08;7.03;;;;;;;;;;10320974;28;20019;-78
2023/10/28 19:57:33;;;;;;;19.60;5.15;;;;;;;;;;10319939;28;20046;-77
2023/10/28 20:02:33;;;;;;;17.48;7.18;;;;;;;;;;10321830;28;20015;-76
2023/10/28 20:07:33;;;;;;;18.10;5.07;;;;;;;;;;10321310;28;20128;-77
2023/10/28 20:12:34;;;;;;;16.27;5.00;;;;;;;;;;10321578;28;20062;-78
2023/10/28 20:17:37;;;;;;;12.18;4.82;;;;;;;;;;10321681;28;20613;-76
2023/10/28 20:22:38;;;;;;;12.02;5.07;;;;;;;;;;10318835;28;20475;-78
2023/10/28 20:27:38;;;;;;;15.70;4.88;;;;;;;;;;10320915;28;20392;-76
2023/10/28 20:32:38;;;;;;;13.10;5.43;;;;;;;;;;10318318;28;20018;-76
2023/10/28 20:37:39;;;;;;;12.27;4.20;;;;;;;;;;10302340;28;20657;-76
2023/10/28 20:42:40;;;;;;;10.85;4.38;;;;;;;;;;10318791;28;20497;-79
2023/10/28 20:47:41;;;;;;;17.90;5.85;;;;;;;;;;10317485;28;20026;-76
2023/10/28 20:52:41;;;;;;;30.65;6.03;;;;;;;;;;10320564;28;20022;-75
2023/10/28 20:57:41;;;;;;;15.53;4.87;;;;;;;;;;10319097;28;20014;-78
2023/10/28 21:02:42;;;;;;;9.00;4.22;;;;;;;;;;10318592;28;20072;-80
2023/10/28 21:07:43;;;;;;;10.82;3.65;;;;;;;;;;10322682;28;20029;-76
2023/10/28 21:12:45;;;;;;;17.48;4.30;;;;;;;;;;10317379;28;20037;-81
2023/10/28 21:17:47;;;;;;;12.85;4.28;;;;;;;;;;10317245;28;20030;-79
2023/10/28 21:22:48;;;;;;;12.88;4.63;;;;;;;;;;10316396;28;20100;-77
2023/10/28 21:27:50;;;;;;;16.67;5.03;;;;;;;;;;10319373;28;20412;-76
2023/10/28 21:32:50;;;;;;;15.35;4.90;;;;;;;;;;10316449;28;20037;-79
2023/10/28 21:37:50;;;;;;;17.35;4.88;;;;;;;;;;10317878;28;20487;-79
2023/10/28 21:42:51;;;;;;;15.38;5.13;;;;;;;;;;10320685;28;20117;-79
2023/10/28 21:47:51;;;;;;;10.68;4.50;;;;;;;;;;10326074;28;20034;-76
2023/10/28 21:52:52;;;;;;;12.43;3.90;;;;;;;;;;10329888;28;20203;-75
2023/10/28 21:57:52;;;;;;;13.43;4.30;;;;;;;;;;10324039;28;20018;-73
2023/10/28 22:02:53;;;;;;;20.42;5.03;;;;;;;;;;10308489;28;20582;-75
2023/10/28 22:07:54;;;;;;;13.93;4.60;;;;;;;;;;10326188;28;20026;-77
2023/10/28 22:12:57;;;;;;;14.38;4.10;;;;;;;;;;10333076;28;20471;-77
2023/10/28 22:17:59;;;;;;;6.45;3.65;;;;;;;;;;10337769;28;20022;-80
2023/10/28 22:22:59;;;;;;;11.00;3.42;;;;;;;;;;10321942;28;20142;-77
2023/10/28 22:28:00;;;;;;;13.48;4.93;;;;;;;;;;10315864;28;20038;-76
2023/10/28 22:33:00;;;;;;;9.75;3.33;;;;;;;;;;10314881;28;20628;-73
2023/10/28 22:38:01;;;;;;;12.13;4.55;;;;;;;;;;10312236;28;20496;-73
2023/10/28 22:43:01;;;;;;;9.30;2.80;;;;;;;;;;10316066;28;20516;-76
2023/10/28 22:48:02;;;;;;;4.75;2.30;;;;;;;;;;10325832;28;20125;-74
2023/10/28 22:53:02;;;;;;;10.63;2.83;;;;;;;;;;10345111;28;20026;-74
2023/10/28 22:58:03;;;;;;;5.82;2.30;;;;;;;;;;10344953;28;20030;-72
2023/10/28 23:03:07;;;;;;;8.33;2.90;;;;;;;;;;10329854;28;20077;-78
2023/10/28 23:08:07;;;;;;;7.38;2.55;;;;;;;;;;10325194;28;20355;-74
2023/10/28 23:13:08;;;;;;;6.50;2.65;;;;;;;;;;10330288;28;20084;-76
2023/10/28 23:18:09;;;;;;;6.18;2.80;;;;;;;;;;10320565;28;20015;-82
2023/10/28 23:23:11;;;;;;;7.20;2.72;;;;;;;;;;10321851;28;20116;-77
2023/10/28 23:28:11;;;;;;;9.40;3.13;;;;;;;;;;10333068;28;20474;-74
2023/10/28 23:33:11;;;;;;;7.28;2.53;;;;;;;;;;10322851;28;20137;-74
2023/10/28 23:38:12;;;;;;;10.35;2.65;;;;;;;;;;10330441;28;20030;-75
2023/10/28 23:43:12;;;;;;;5.57;2.93;;;;;;;;;;10325311;28;20026;-76
2023/10/28 23:48:13;;;;;;;8.10;3.03;;;;;;;;;;10325219;28;20473;-75
2023/10/28 23:53:13;;;;;;;4.90;2.70;;;;;;;;;;10325016;28;20034;-79
2023/10/28 23:58:14;;;;;;;6.17;3.27;;;;;;;;;;10310202;28;20034;-78
